sensor_id;sensor_type;location;lat;lon;timestamp;P1;durP1;ratioP1;P2;durP2;ratioP2
28625;SDS011;18905;42.668;23.364;2023-07-13T00:00:33;12.73;;;5.28;;
28625;SDS011;18905;42.668;23.364;2023-07-13T00:02:58;9.05;;;4.97;;
28625;SDS011;18905;42.668;23.364;2023-07-13T00:05:24;11.23;;;4.90;;
28625;SDS011;18905;42.668;23.364;2023-07-13T00:07:49;14.77;;;4.85;;
28625;SDS011;18905;42.668;23.364;2023-07-13T00:10:17;14.13;;;5.03;;
28625;SDS011;18905;42.668;23.364;2023-07-13T00:12:43;11.50;;;4.55;;
28625;SDS011;18905;42.668;23.364;2023-07-13T00:15:19;7.82;;;5.07;;
28625;SDS011;18905;42.668;23.364;2023-07-13T00:17:57;9.90;;;5.10;;
28625;SDS011;18905;42.668;23.364;2023-07-13T00:20:23;9.55;;;5.10;;
28625;SDS011;18905;42.668;23.364;2023-07-13T00:22:50;9.85;;;5.00;;
28625;SDS011;18905;42.668;23.364;2023-07-13T00:25:18;15.45;;;5.30;;
28625;SDS011;18905;42.668;23.364;2023-07-13T00:27:49;7.55;;;4.90;;
28625;SDS011;18905;42.668;23.364;2023-07-13T00:30:15;9.38;;;5.07;;
28625;SDS011;18905;42.668;23.364;2023-07-13T00:32:40;12.40;;;5.45;;
28625;SDS011;18905;42.668;23.364;2023-07-13T00:35:06;13.10;;;4.57;;
28625;SDS011;18905;42.668;23.364;2023-07-13T00:37:35;11.65;;;5.15;;
28625;SDS011;18905;42.668;23.364;2023-07-13T00:40:04;11.10;;;5.00;;
28625;SDS011;18905;42.668;23.364;2023-07-13T00:42:30;10.75;;;4.85;;
28625;SDS011;18905;42.668;23.364;2023-07-13T00:47:36;12.82;;;5.32;;
28625;SDS011;18905;42.668;23.364;2023-07-13T00:50:02;10.88;;;5.32;;
28625;SDS011;18905;42.668;23.364;2023-07-13T00:52:30;14.18;;;5.47;;
28625;SDS011;18905;42.668;23.364;2023-07-13T00:54:56;9.80;;;4.93;;
28625;SDS011;18905;42.668;23.364;2023-07-13T00:57:22;14.98;;;5.10;;
28625;SDS011;18905;42.668;23.364;2023-07-13T00:59:50;10.65;;;5.13;;
28625;SDS011;18905;42.668;23.364;2023-07-13T01:02:19;15.25;;;5.95;;
28625;SDS011;18905;42.668;23.364;2023-07-13T01:04:44;9.63;;;5.10;;
28625;SDS011;18905;42.668;23.364;2023-07-13T01:07:10;10.98;;;5.18;;
28625;SDS011;18905;42.668;23.364;2023-07-13T01:09:37;14.20;;;5.45;;
28625;SDS011;18905;42.668;23.364;2023-07-13T01:12:02;12.48;;;5.50;;
28625;SDS011;18905;42.668;23.364;2023-07-13T01:14:28;10.82;;;5.60;;
28625;SDS011;18905;42.668;23.364;2023-07-13T01:16:54;9.57;;;4.82;;
28625;SDS011;18905;42.668;23.364;2023-07-13T01:19:36;12.30;;;5.53;;
28625;SDS011;18905;42.668;23.364;2023-07-13T01:22:12;9.13;;;5.18;;
28625;SDS011;18905;42.668;23.364;2023-07-13T01:24:40;13.98;;;5.85;;
28625;SDS011;18905;42.668;23.364;2023-07-13T01:27:08;7.65;;;4.78;;
28625;SDS011;18905;42.668;23.364;2023-07-13T01:29:34;12.82;;;4.85;;
28625;SDS011;18905;42.668;23.364;2023-07-13T01:32:08;12.05;;;5.38;;
28625;SDS011;18905;42.668;23.364;2023-07-13T01:34:49;6.90;;;4.88;;
28625;SDS011;18905;42.668;23.364;2023-07-13T01:37:19;13.32;;;5.38;;
28625;SDS011;18905;42.668;23.364;2023-07-13T01:39:45;12.90;;;5.55;;
28625;SDS011;18905;42.668;23.364;2023-07-13T01:42:11;9.63;;;4.97;;
28625;SDS011;18905;42.668;23.364;2023-07-13T01:44:37;8.27;;;4.82;;
28625;SDS011;18905;42.668;23.364;2023-07-13T01:47:02;11.32;;;4.93;;
28625;SDS011;18905;42.668;23.364;2023-07-13T01:49:28;7.97;;;4.95;;
28625;SDS011;18905;42.668;23.364;2023-07-13T01:51:54;8.40;;;4.82;;
28625;SDS011;18905;42.668;23.364;2023-07-13T01:54:19;8.60;;;4.85;;
28625;SDS011;18905;42.668;23.364;2023-07-13T01:56:44;8.95;;;5.35;;
28625;SDS011;18905;42.668;23.364;2023-07-13T01:59:10;12.80;;;5.10;;
28625;SDS011;18905;42.668;23.364;2023-07-13T02:01:35;10.77;;;5.38;;
28625;SDS011;18905;42.668;23.364;2023-07-13T02:04:01;12.10;;;5.50;;
28625;SDS011;18905;42.668;23.364;2023-07-13T02:06:27;12.40;;;5.50;;
28625;SDS011;18905;42.668;23.364;2023-07-13T02:08:52;11.30;;;5.35;;
28625;SDS011;18905;42.668;23.364;2023-07-13T02:11:18;10.02;;;5.03;;
28625;SDS011;18905;42.668;23.364;2023-07-13T02:13:44;7.05;;;4.85;;
28625;SDS011;18905;42.668;23.364;2023-07-13T02:16:09;7.72;;;5.18;;
28625;SDS011;18905;42.668;23.364;2023-07-13T02:18:34;9.07;;;4.88;;
28625;SDS011;18905;42.668;23.364;2023-07-13T02:21:00;6.72;;;5.20;;
28625;SDS011;18905;42.668;23.364;2023-07-13T02:23:25;7.28;;;4.50;;
28625;SDS011;18905;42.668;23.364;2023-07-13T02:25:57;6.85;;;4.93;;
28625;SDS011;18905;42.668;23.364;2023-07-13T02:28:23;10.43;;;4.90;;
28625;SDS011;18905;42.668;23.364;2023-07-13T02:30:49;8.77;;;4.80;;
28625;SDS011;18905;42.668;23.364;2023-07-13T02:33:14;9.10;;;4.93;;
28625;SDS011;18905;42.668;23.364;2023-07-13T02:35:40;8.90;;;5.30;;
28625;SDS011;18905;42.668;23.364;2023-07-13T02:38:05;9.50;;;5.07;;
28625;SDS011;18905;42.668;23.364;2023-07-13T02:40:31;8.60;;;4.95;;
28625;SDS011;18905;42.668;23.364;2023-07-13T02:42:58;10.75;;;5.57;;
28625;SDS011;18905;42.668;23.364;2023-07-13T02:45:24;9.40;;;5.35;;
28625;SDS011;18905;42.668;23.364;2023-07-13T02:47:50;6.63;;;5.15;;
28625;SDS011;18905;42.668;23.364;2023-07-13T02:50:15;10.70;;;5.57;;
28625;SDS011;18905;42.668;23.364;2023-07-13T02:52:41;14.88;;;5.40;;
28625;SDS011;18905;42.668;23.364;2023-07-13T02:55:06;9.48;;;4.95;;
28625;SDS011;18905;42.668;23.364;2023-07-13T02:57:32;7.20;;;5.30;;
28625;SDS011;18905;42.668;23.364;2023-07-13T03:00:00;8.70;;;4.88;;
28625;SDS011;18905;42.668;23.364;2023-07-13T03:02:30;9.98;;;5.30;;
28625;SDS011;18905;42.668;23.364;2023-07-13T03:04:56;10.05;;;5.30;;
28625;SDS011;18905;42.668;23.364;2023-07-13T03:07:21;8.77;;;5.70;;
28625;SDS011;18905;42.668;23.364;2023-07-13T03:09:46;13.10;;;5.75;;
28625;SDS011;18905;42.668;23.364;2023-07-13T03:12:12;9.63;;;5.47;;
28625;SDS011;18905;42.668;23.364;2023-07-13T03:14:37;8.25;;;5.75;;
28625;SDS011;18905;42.668;23.364;2023-07-13T03:17:02;12.10;;;6.47;;
28625;SDS011;18905;42.668;23.364;2023-07-13T03:19:28;13.43;;;6.28;;
28625;SDS011;18905;42.668;23.364;2023-07-13T03:21:53;10.15;;;6.07;;
28625;SDS011;18905;42.668;23.364;2023-07-13T03:24:19;10.35;;;5.60;;
28625;SDS011;18905;42.668;23.364;2023-07-13T03:26:45;12.55;;;6.05;;
28625;SDS011;18905;42.668;23.364;2023-07-13T03:29:10;13.45;;;6.85;;
28625;SDS011;18905;42.668;23.364;2023-07-13T03:31:36;14.20;;;5.95;;
28625;SDS011;18905;42.668;23.364;2023-07-13T03:34:02;13.55;;;6.28;;
28625;SDS011;18905;42.668;23.364;2023-07-13T03:36:28;11.32;;;6.05;;
28625;SDS011;18905;42.668;23.364;2023-07-13T03:38:57;10.57;;;6.35;;
28625;SDS011;18905;42.668;23.364;2023-07-13T03:41:24;15.27;;;6.72;;
28625;SDS011;18905;42.668;23.364;2023-07-13T03:43:50;13.77;;;6.70;;
28625;SDS011;18905;42.668;23.364;2023-07-13T03:46:16;13.93;;;6.82;;
28625;SDS011;18905;42.668;23.364;2023-07-13T03:48:43;18.15;;;6.75;;
28625;SDS011;18905;42.668;23.364;2023-07-13T03:51:10;15.45;;;6.85;;
28625;SDS011;18905;42.668;23.364;2023-07-13T03:53:39;12.77;;;7.43;;
28625;SDS011;18905;42.668;23.364;2023-07-13T03:56:07;13.80;;;6.97;;
28625;SDS011;18905;42.668;23.364;2023-07-13T03:58:33;13.70;;;7.82;;
28625;SDS011;18905;42.668;23.364;2023-07-13T04:01:04;12.93;;;7.07;;
28625;SDS011;18905;42.668;23.364;2023-07-13T04:03:31;12.82;;;7.07;;
28625;SDS011;18905;42.668;23.364;2023-07-13T04:05:58;20.63;;;7.65;;
28625;SDS011;18905;42.668;23.364;2023-07-13T04:08:25;11.20;;;7.32;;
28625;SDS011;18905;42.668;23.364;2023-07-13T04:10:53;9.65;;;6.95;;
28625;SDS011;18905;42.668;23.364;2023-07-13T04:13:19;8.57;;;5.60;;
28625;SDS011;18905;42.668;23.364;2023-07-13T04:15:45;13.35;;;6.60;;
28625;SDS011;18905;42.668;23.364;2023-07-13T04:18:10;11.40;;;7.05;;
28625;SDS011;18905;42.668;23.364;2023-07-13T04:20:35;15.50;;;7.95;;
28625;SDS011;18905;42.668;23.364;2023-07-13T04:23:01;13.02;;;6.88;;
28625;SDS011;18905;42.668;23.364;2023-07-13T04:25:29;12.45;;;7.78;;
28625;SDS011;18905;42.668;23.364;2023-07-13T04:27:55;12.48;;;8.02;;
28625;SDS011;18905;42.668;23.364;2023-07-13T04:30:21;11.77;;;7.85;;
28625;SDS011;18905;42.668;23.364;2023-07-13T04:32:47;13.32;;;7.63;;
28625;SDS011;18905;42.668;23.364;2023-07-13T04:35:13;16.48;;;7.07;;
28625;SDS011;18905;42.668;23.364;2023-07-13T04:37:39;13.48;;;7.30;;
28625;SDS011;18905;42.668;23.364;2023-07-13T04:40:05;11.90;;;6.45;;
28625;SDS011;18905;42.668;23.364;2023-07-13T04:42:35;14.32;;;7.03;;
28625;SDS011;18905;42.668;23.364;2023-07-13T04:45:00;14.35;;;7.20;;
28625;SDS011;18905;42.668;23.364;2023-07-13T04:47:25;13.07;;;6.85;;
28625;SDS011;18905;42.668;23.364;2023-07-13T04:49:51;15.27;;;6.82;;
28625;SDS011;18905;42.668;23.364;2023-07-13T04:52:16;8.82;;;6.88;;
28625;SDS011;18905;42.668;23.364;2023-07-13T04:54:41;14.77;;;7.25;;
28625;SDS011;18905;42.668;23.364;2023-07-13T04:57:07;12.73;;;7.30;;
28625;SDS011;18905;42.668;23.364;2023-07-13T04:59:32;18.80;;;8.07;;
28625;SDS011;18905;42.668;23.364;2023-07-13T05:01:58;14.60;;;7.38;;
28625;SDS011;18905;42.668;23.364;2023-07-13T05:04:24;16.92;;;7.32;;
28625;SDS011;18905;42.668;23.364;2023-07-13T05:06:49;12.73;;;6.90;;
28625;SDS011;18905;42.668;23.364;2023-07-13T05:09:14;13.02;;;7.22;;
28625;SDS011;18905;42.668;23.364;2023-07-13T05:11:40;12.82;;;7.18;;
28625;SDS011;18905;42.668;23.364;2023-07-13T05:14:05;15.38;;;7.18;;
28625;SDS011;18905;42.668;23.364;2023-07-13T05:16:31;14.82;;;7.75;;
28625;SDS011;18905;42.668;23.364;2023-07-13T05:18:57;13.50;;;7.20;;
28625;SDS011;18905;42.668;23.364;2023-07-13T05:21:22;10.48;;;7.35;;
28625;SDS011;18905;42.668;23.364;2023-07-13T05:23:48;15.90;;;8.13;;
28625;SDS011;18905;42.668;23.364;2023-07-13T05:26:13;34.60;;;17.27;;
28625;SDS011;18905;42.668;23.364;2023-07-13T05:28:39;14.65;;;8.32;;
28625;SDS011;18905;42.668;23.364;2023-07-13T05:31:05;14.75;;;7.38;;
28625;SDS011;18905;42.668;23.364;2023-07-13T05:33:33;16.48;;;8.00;;
28625;SDS011;18905;42.668;23.364;2023-07-13T05:36:01;14.85;;;7.75;;
28625;SDS011;18905;42.668;23.364;2023-07-13T05:38:33;13.57;;;8.02;;
28625;SDS011;18905;42.668;23.364;2023-07-13T05:41:02;17.77;;;8.05;;
28625;SDS011;18905;42.668;23.364;2023-07-13T05:43:27;18.20;;;9.85;;
28625;SDS011;18905;42.668;23.364;2023-07-13T05:45:53;15.23;;;8.85;;
28625;SDS011;18905;42.668;23.364;2023-07-13T05:48:19;12.52;;;8.20;;
28625;SDS011;18905;42.668;23.364;2023-07-13T05:50:45;12.52;;;9.10;;
28625;SDS011;18905;42.668;23.364;2023-07-13T05:53:11;14.77;;;8.60;;
28625;SDS011;18905;42.668;23.364;2023-07-13T05:55:40;18.58;;;8.98;;
28625;SDS011;18905;42.668;23.364;2023-07-13T05:58:10;17.60;;;8.38;;
28625;SDS011;18905;42.668;23.364;2023-07-13T06:00:36;13.18;;;7.97;;
28625;SDS011;18905;42.668;23.364;2023-07-13T06:03:02;9.40;;;6.88;;
28625;SDS011;18905;42.668;23.364;2023-07-13T06:05:27;13.65;;;7.70;;
28625;SDS011;18905;42.668;23.364;2023-07-13T06:07:53;11.48;;;7.22;;
28625;SDS011;18905;42.668;23.364;2023-07-13T06:10:19;16.30;;;6.45;;
28625;SDS011;18905;42.668;23.364;2023-07-13T06:12:45;11.23;;;6.38;;
28625;SDS011;18905;42.668;23.364;2023-07-13T06:15:38;11.75;;;7.47;;
28625;SDS011;18905;42.668;23.364;2023-07-13T06:17:59;13.57;;;6.25;;
28625;SDS011;18905;42.668;23.364;2023-07-13T06:20:24;17.50;;;7.53;;
28625;SDS011;18905;42.668;23.364;2023-07-13T06:22:49;13.07;;;6.90;;
28625;SDS011;18905;42.668;23.364;2023-07-13T06:25:15;13.93;;;7.25;;
28625;SDS011;18905;42.668;23.364;2023-07-13T06:27:40;13.23;;;6.90;;
28625;SDS011;18905;42.668;23.364;2023-07-13T06:30:06;13.55;;;6.90;;
28625;SDS011;18905;42.668;23.364;2023-07-13T06:32:32;15.30;;;7.30;;
28625;SDS011;18905;42.668;23.364;2023-07-13T06:34:57;13.23;;;7.03;;
28625;SDS011;18905;42.668;23.364;2023-07-13T06:37:22;15.75;;;6.40;;
28625;SDS011;18905;42.668;23.364;2023-07-13T06:39:48;14.88;;;6.28;;
28625;SDS011;18905;42.668;23.364;2023-07-13T06:42:13;11.43;;;5.97;;
28625;SDS011;18905;42.668;23.364;2023-07-13T06:44:38;10.68;;;6.45;;
28625;SDS011;18905;42.668;23.364;2023-07-13T06:47:04;18.40;;;6.63;;
28625;SDS011;18905;42.668;23.364;2023-07-13T06:49:29;8.75;;;6.72;;
28625;SDS011;18905;42.668;23.364;2023-07-13T06:51:55;14.02;;;7.63;;
28625;SDS011;18905;42.668;23.364;2023-07-13T06:54:20;10.80;;;6.85;;
28625;SDS011;18905;42.668;23.364;2023-07-13T06:56:46;17.40;;;7.60;;
28625;SDS011;18905;42.668;23.364;2023-07-13T06:59:11;18.58;;;7.03;;
28625;SDS011;18905;42.668;23.364;2023-07-13T07:01:36;17.80;;;6.90;;
28625;SDS011;18905;42.668;23.364;2023-07-13T07:04:02;16.58;;;6.88;;
28625;SDS011;18905;42.668;23.364;2023-07-13T07:06:31;13.10;;;7.05;;
28625;SDS011;18905;42.668;23.364;2023-07-13T07:08:56;13.30;;;7.53;;
28625;SDS011;18905;42.668;23.364;2023-07-13T07:11:24;15.73;;;7.55;;
28625;SDS011;18905;42.668;23.364;2023-07-13T07:13:51;19.02;;;7.07;;
28625;SDS011;18905;42.668;23.364;2023-07-13T07:16:18;12.18;;;7.25;;
28625;SDS011;18905;42.668;23.364;2023-07-13T07:18:44;18.40;;;7.47;;
28625;SDS011;18905;42.668;23.364;2023-07-13T07:21:10;17.63;;;6.85;;
28625;SDS011;18905;42.668;23.364;2023-07-13T07:23:36;17.25;;;7.85;;
28625;SDS011;18905;42.668;23.364;2023-07-13T07:26:01;11.05;;;7.05;;
28625;SDS011;18905;42.668;23.364;2023-07-13T07:28:27;18.45;;;8.25;;
28625;SDS011;18905;42.668;23.364;2023-07-13T07:30:54;18.02;;;7.90;;
28625;SDS011;18905;42.668;23.364;2023-07-13T07:33:23;15.35;;;7.72;;
28625;SDS011;18905;42.668;23.364;2023-07-13T07:35:49;14.98;;;8.23;;
28625;SDS011;18905;42.668;23.364;2023-07-13T07:38:15;12.73;;;7.72;;
28625;SDS011;18905;42.668;23.364;2023-07-13T07:40:41;14.45;;;7.45;;
28625;SDS011;18905;42.668;23.364;2023-07-13T07:43:07;14.40;;;7.43;;
28625;SDS011;18905;42.668;23.364;2023-07-13T07:45:33;14.93;;;7.53;;
28625;SDS011;18905;42.668;23.364;2023-07-13T07:47:59;10.07;;;6.97;;
28625;SDS011;18905;42.668;23.364;2023-07-13T07:50:28;19.85;;;7.97;;
28625;SDS011;18905;42.668;23.364;2023-07-13T07:52:53;15.05;;;7.95;;
28625;SDS011;18905;42.668;23.364;2023-07-13T07:55:21;17.02;;;7.90;;
28625;SDS011;18905;42.668;23.364;2023-07-13T07:57:49;18.95;;;7.80;;
28625;SDS011;18905;42.668;23.364;2023-07-13T08:00:15;16.10;;;7.53;;
28625;SDS011;18905;42.668;23.364;2023-07-13T08:02:41;17.35;;;7.45;;
28625;SDS011;18905;42.668;23.364;2023-07-13T08:05:07;23.83;;;8.65;;
28625;SDS011;18905;42.668;23.364;2023-07-13T08:07:33;24.40;;;8.88;;
28625;SDS011;18905;42.668;23.364;2023-07-13T08:09:59;18.02;;;8.40;;
28625;SDS011;18905;42.668;23.364;2023-07-13T08:12:24;23.75;;;8.60;;
28625;SDS011;18905;42.668;23.364;2023-07-13T08:14:50;17.08;;;8.15;;
28625;SDS011;18905;42.668;23.364;2023-07-13T08:17:21;17.27;;;7.28;;
28625;SDS011;18905;42.668;23.364;2023-07-13T08:19:47;17.17;;;7.38;;
28625;SDS011;18905;42.668;23.364;2023-07-13T08:22:12;22.15;;;8.52;;
28625;SDS011;18905;42.668;23.364;2023-07-13T08:24:38;17.60;;;7.65;;
28625;SDS011;18905;42.668;23.364;2023-07-13T08:27:03;12.90;;;7.38;;
28625;SDS011;18905;42.668;23.364;2023-07-13T08:29:29;17.55;;;6.95;;
28625;SDS011;18905;42.668;23.364;2023-07-13T08:31:57;23.67;;;7.72;;
28625;SDS011;18905;42.668;23.364;2023-07-13T08:34:23;12.90;;;6.80;;
28625;SDS011;18905;42.668;23.364;2023-07-13T08:36:48;15.18;;;7.75;;
28625;SDS011;18905;42.668;23.364;2023-07-13T08:39:16;16.48;;;8.07;;
28625;SDS011;18905;42.668;23.364;2023-07-13T08:41:44;14.35;;;7.22;;
28625;SDS011;18905;42.668;23.364;2023-07-13T08:44:23;14.98;;;7.20;;
28625;SDS011;18905;42.668;23.364;2023-07-13T08:47:21;17.27;;;7.78;;
28625;SDS011;18905;42.668;23.364;2023-07-13T08:49:48;14.23;;;7.47;;
28625;SDS011;18905;42.668;23.364;2023-07-13T08:52:37;14.00;;;7.43;;
28625;SDS011;18905;42.668;23.364;2023-07-13T08:55:05;10.93;;;6.93;;
28625;SDS011;18905;42.668;23.364;2023-07-13T08:57:38;21.35;;;7.75;;
28625;SDS011;18905;42.668;23.364;2023-07-13T09:00:10;12.77;;;7.65;;
28625;SDS011;18905;42.668;23.364;2023-07-13T09:05:15;12.25;;;7.18;;
28625;SDS011;18905;42.668;23.364;2023-07-13T09:10:20;16.58;;;7.38;;
28625;SDS011;18905;42.668;23.364;2023-07-13T09:15:21;15.40;;;7.68;;
28625;SDS011;18905;42.668;23.364;2023-07-13T09:18:13;19.42;;;7.32;;
28625;SDS011;18905;42.668;23.364;2023-07-13T09:20:51;16.40;;;7.75;;
28625;SDS011;18905;42.668;23.364;2023-07-13T09:23:21;22.25;;;7.90;;
28625;SDS011;18905;42.668;23.364;2023-07-13T09:25:51;14.20;;;7.72;;
28625;SDS011;18905;42.668;23.364;2023-07-13T09:28:23;15.45;;;7.82;;
28625;SDS011;18905;42.668;23.364;2023-07-13T09:33:37;19.23;;;8.35;;
28625;SDS011;18905;42.668;23.364;2023-07-13T09:36:25;13.50;;;7.78;;
28625;SDS011;18905;42.668;23.364;2023-07-13T09:39:10;17.05;;;7.82;;
28625;SDS011;18905;42.668;23.364;2023-07-13T09:44:15;16.88;;;7.65;;
28625;SDS011;18905;42.668;23.364;2023-07-13T09:46:44;15.80;;;9.00;;
28625;SDS011;18905;42.668;23.364;2023-07-13T09:49:12;20.52;;;8.15;;
28625;SDS011;18905;42.668;23.364;2023-07-13T09:51:40;26.88;;;15.70;;
28625;SDS011;18905;42.668;23.364;2023-07-13T09:54:17;18.58;;;8.15;;
28625;SDS011;18905;42.668;23.364;2023-07-13T09:56:45;17.00;;;7.50;;
28625;SDS011;18905;42.668;23.364;2023-07-13T09:59:20;14.82;;;7.93;;
28625;SDS011;18905;42.668;23.364;2023-07-13T10:01:49;23.42;;;8.20;;
28625;SDS011;18905;42.668;23.364;2023-07-13T10:04:17;13.30;;;8.27;;
28625;SDS011;18905;42.668;23.364;2023-07-13T10:06:44;14.57;;;7.75;;
28625;SDS011;18905;42.668;23.364;2023-07-13T10:09:13;14.70;;;7.65;;
28625;SDS011;18905;42.668;23.364;2023-07-13T10:11:41;15.18;;;6.75;;
28625;SDS011;18905;42.668;23.364;2023-07-13T10:14:11;16.83;;;7.15;;
28625;SDS011;18905;42.668;23.364;2023-07-13T10:16:41;12.55;;;8.00;;
28625;SDS011;18905;42.668;23.364;2023-07-13T10:19:15;22.25;;;7.88;;
28625;SDS011;18905;42.668;23.364;2023-07-13T10:21:54;15.00;;;7.85;;
28625;SDS011;18905;42.668;23.364;2023-07-13T10:24:23;16.90;;;7.43;;
28625;SDS011;18905;42.668;23.364;2023-07-13T10:29:54;16.08;;;7.78;;
28625;SDS011;18905;42.668;23.364;2023-07-13T10:32:26;20.25;;;8.60;;
28625;SDS011;18905;42.668;23.364;2023-07-13T10:34:52;14.80;;;6.80;;
28625;SDS011;18905;42.668;23.364;2023-07-13T10:37:24;15.25;;;7.38;;
28625;SDS011;18905;42.668;23.364;2023-07-13T10:39:53;19.92;;;6.63;;
28625;SDS011;18905;42.668;23.364;2023-07-13T10:44:55;13.43;;;5.00;;
28625;SDS011;18905;42.668;23.364;2023-07-13T10:47:20;14.93;;;5.60;;
28625;SDS011;18905;42.668;23.364;2023-07-13T10:49:46;12.25;;;5.13;;
28625;SDS011;18905;42.668;23.364;2023-07-13T11:00:47;17.92;;;5.22;;
28625;SDS011;18905;42.668;23.364;2023-07-13T11:03:17;10.95;;;4.80;;
28625;SDS011;18905;42.668;23.364;2023-07-13T11:05:48;10.35;;;5.13;;
28625;SDS011;18905;42.668;23.364;2023-07-13T11:10:51;9.90;;;4.40;;
28625;SDS011;18905;42.668;23.364;2023-07-13T11:16:57;8.90;;;4.55;;
28625;SDS011;18905;42.668;23.364;2023-07-13T11:27:45;10.05;;;4.55;;
28625;SDS011;18905;42.668;23.364;2023-07-13T11:36:03;11.00;;;4.95;;
28625;SDS011;18905;42.668;23.364;2023-07-13T11:38:38;11.00;;;4.88;;
28625;SDS011;18905;42.668;23.364;2023-07-13T11:41:25;10.05;;;5.40;;
28625;SDS011;18905;42.668;23.364;2023-07-13T11:43:55;12.18;;;5.00;;
28625;SDS011;18905;42.668;23.364;2023-07-13T11:46:30;9.23;;;5.07;;
28625;SDS011;18905;42.668;23.364;2023-07-13T11:48:55;14.43;;;5.22;;
28625;SDS011;18905;42.668;23.364;2023-07-13T11:51:25;8.05;;;4.35;;
28625;SDS011;18905;42.668;23.364;2023-07-13T11:53:54;14.98;;;5.47;;
28625;SDS011;18905;42.668;23.364;2023-07-13T11:56:23;10.43;;;5.47;;
28625;SDS011;18905;42.668;23.364;2023-07-13T11:58:51;10.65;;;5.28;;
28625;SDS011;18905;42.668;23.364;2023-07-13T12:01:22;11.20;;;4.93;;
28625;SDS011;18905;42.668;23.364;2023-07-13T12:03:50;10.60;;;5.47;;
28625;SDS011;18905;42.668;23.364;2023-07-13T12:06:25;12.02;;;5.15;;
28625;SDS011;18905;42.668;23.364;2023-07-13T12:08:57;11.43;;;5.18;;
28625;SDS011;18905;42.668;23.364;2023-07-13T12:11:24;15.05;;;4.72;;
28625;SDS011;18905;42.668;23.364;2023-07-13T12:13:50;17.40;;;5.50;;
28625;SDS011;18905;42.668;23.364;2023-07-13T12:16:28;11.40;;;5.05;;
28625;SDS011;18905;42.668;23.364;2023-07-13T12:18:55;15.95;;;5.60;;
28625;SDS011;18905;42.668;23.364;2023-07-13T12:21:23;16.77;;;5.07;;
28625;SDS011;18905;42.668;23.364;2023-07-13T12:23:59;14.68;;;5.03;;
28625;SDS011;18905;42.668;23.364;2023-07-13T12:26:29;10.85;;;5.07;;
28625;SDS011;18905;42.668;23.364;2023-07-13T12:28:56;15.85;;;5.47;;
28625;SDS011;18905;42.668;23.364;2023-07-13T12:34:11;11.17;;;4.97;;
28625;SDS011;18905;42.668;23.364;2023-07-13T12:36:40;11.80;;;4.97;;
28625;SDS011;18905;42.668;23.364;2023-07-13T12:39:13;13.32;;;4.53;;
28625;SDS011;18905;42.668;23.364;2023-07-13T12:41:41;13.00;;;4.88;;
28625;SDS011;18905;42.668;23.364;2023-07-13T12:44:11;12.52;;;4.88;;
28625;SDS011;18905;42.668;23.364;2023-07-13T12:46:38;11.32;;;4.93;;
28625;SDS011;18905;42.668;23.364;2023-07-13T12:49:05;10.52;;;5.07;;
28625;SDS011;18905;42.668;23.364;2023-07-13T12:51:35;11.85;;;4.82;;
28625;SDS011;18905;42.668;23.364;2023-07-13T12:54:07;8.60;;;4.57;;
28625;SDS011;18905;42.668;23.364;2023-07-13T12:56:40;13.02;;;5.47;;
28625;SDS011;18905;42.668;23.364;2023-07-13T12:59:08;15.50;;;4.82;;
28625;SDS011;18905;42.668;23.364;2023-07-13T13:01:42;12.55;;;5.30;;
28625;SDS011;18905;42.668;23.364;2023-07-13T13:04:08;14.85;;;5.50;;
28625;SDS011;18905;42.668;23.364;2023-07-13T13:06:36;11.82;;;5.43;;
28625;SDS011;18905;42.668;23.364;2023-07-13T13:09:02;12.63;;;5.50;;
28625;SDS011;18905;42.668;23.364;2023-07-13T13:11:29;14.40;;;5.10;;
28625;SDS011;18905;42.668;23.364;2023-07-13T13:13:56;15.57;;;5.68;;
28625;SDS011;18905;42.668;23.364;2023-07-13T13:16:31;12.43;;;5.85;;
28625;SDS011;18905;42.668;23.364;2023-07-13T13:19:00;10.32;;;5.57;;
28625;SDS011;18905;42.668;23.364;2023-07-13T13:21:43;15.02;;;5.57;;
28625;SDS011;18905;42.668;23.364;2023-07-13T13:24:11;11.27;;;5.68;;
28625;SDS011;18905;42.668;23.364;2023-07-13T13:26:41;11.55;;;5.63;;
28625;SDS011;18905;42.668;23.364;2023-07-13T13:29:13;12.20;;;5.20;;
28625;SDS011;18905;42.668;23.364;2023-07-13T13:31:41;13.85;;;5.95;;
28625;SDS011;18905;42.668;23.364;2023-07-13T13:34:08;10.75;;;5.10;;
28625;SDS011;18905;42.668;23.364;2023-07-13T13:36:39;12.10;;;5.40;;
28625;SDS011;18905;42.668;23.364;2023-07-13T13:39:15;14.70;;;5.65;;
28625;SDS011;18905;42.668;23.364;2023-07-13T13:41:47;11.65;;;5.57;;
28625;SDS011;18905;42.668;23.364;2023-07-13T13:44:14;13.80;;;5.85;;
28625;SDS011;18905;42.668;23.364;2023-07-13T13:46:40;19.63;;;6.25;;
28625;SDS011;18905;42.668;23.364;2023-07-13T13:49:17;17.42;;;5.43;;
28625;SDS011;18905;42.668;23.364;2023-07-13T13:51:46;12.10;;;5.43;;
28625;SDS011;18905;42.668;23.364;2023-07-13T13:54:16;18.80;;;6.28;;
28625;SDS011;18905;42.668;23.364;2023-07-13T13:56:43;16.65;;;5.50;;
28625;SDS011;18905;42.668;23.364;2023-07-13T13:59:09;15.30;;;6.15;;
28625;SDS011;18905;42.668;23.364;2023-07-13T14:01:35;14.07;;;5.15;;
28625;SDS011;18905;42.668;23.364;2023-07-13T14:04:02;14.75;;;5.57;;
28625;SDS011;18905;42.668;23.364;2023-07-13T14:06:28;16.17;;;5.57;;
28625;SDS011;18905;42.668;23.364;2023-07-13T14:08:54;12.65;;;5.28;;
28625;SDS011;18905;42.668;23.364;2023-07-13T14:11:20;14.25;;;5.90;;
28625;SDS011;18905;42.668;23.364;2023-07-13T14:13:52;11.77;;;5.53;;
28625;SDS011;18905;42.668;23.364;2023-07-13T14:16:22;15.15;;;5.25;;
28625;SDS011;18905;42.668;23.364;2023-07-13T14:18:53;13.93;;;5.53;;
28625;SDS011;18905;42.668;23.364;2023-07-13T14:21:19;14.18;;;5.70;;
28625;SDS011;18905;42.668;23.364;2023-07-13T14:23:47;10.95;;;5.10;;
28625;SDS011;18905;42.668;23.364;2023-07-13T14:26:17;19.23;;;6.20;;
28625;SDS011;18905;42.668;23.364;2023-07-13T14:28:45;24.83;;;5.35;;
28625;SDS011;18905;42.668;23.364;2023-07-13T14:31:14;16.20;;;5.68;;
28625;SDS011;18905;42.668;23.364;2023-07-13T14:33:41;13.48;;;5.53;;
28625;SDS011;18905;42.668;23.364;2023-07-13T14:38:59;15.43;;;5.43;;
28625;SDS011;18905;42.668;23.364;2023-07-13T14:41:34;11.60;;;5.15;;
28625;SDS011;18905;42.668;23.364;2023-07-13T14:43:59;11.25;;;4.60;;
28625;SDS011;18905;42.668;23.364;2023-07-13T14:46:29;9.63;;;5.03;;
28625;SDS011;18905;42.668;23.364;2023-07-13T14:49:06;11.30;;;5.20;;
28625;SDS011;18905;42.668;23.364;2023-07-13T14:51:54;14.77;;;4.80;;
28625;SDS011;18905;42.668;23.364;2023-07-13T14:54:22;9.45;;;4.55;;
28625;SDS011;18905;42.668;23.364;2023-07-13T14:56:48;14.13;;;5.22;;
28625;SDS011;18905;42.668;23.364;2023-07-13T14:59:14;14.43;;;5.50;;
28625;SDS011;18905;42.668;23.364;2023-07-13T15:01:39;15.30;;;5.43;;
28625;SDS011;18905;42.668;23.364;2023-07-13T15:04:06;17.85;;;6.07;;
28625;SDS011;18905;42.668;23.364;2023-07-13T15:06:35;15.98;;;5.03;;
28625;SDS011;18905;42.668;23.364;2023-07-13T15:09:25;18.85;;;8.68;;
28625;SDS011;18905;42.668;23.364;2023-07-13T15:11:57;18.27;;;8.63;;
28625;SDS011;18905;42.668;23.364;2023-07-13T15:14:23;17.85;;;5.40;;
28625;SDS011;18905;42.668;23.364;2023-07-13T15:16:50;14.32;;;5.60;;
28625;SDS011;18905;42.668;23.364;2023-07-13T15:19:18;13.70;;;4.93;;
28625;SDS011;18905;42.668;23.364;2023-07-13T15:21:46;13.90;;;4.95;;
28625;SDS011;18905;42.668;23.364;2023-07-13T15:24:12;13.73;;;5.03;;